sensor_id;sensor_type;location;lat;lon;timestamp;pressure;altitude;pressure_sealevel;temperature;humidity
62111;BME280;48102;47.526;19.072;2022-09-28T03:41:16;99198.00;;;9.14;100.00
62111;BME280;48102;47.526;19.072;2022-09-28T03:44:23;99198.00;;;9.14;100.00
62111;BME280;48102;47.526;19.072;2022-09-28T03:47:26;99207.56;;;8.58;100.00
62111;BME280;48102;47.526;19.072;2022-09-28T03:50:31;99194.44;;;8.58;100.00
62111;BME280;48102;47.526;19.072;2022-09-28T03:53:35;99203.16;;;8.58;100.00
62111;BME280;48102;47.526;19.072;2022-09-28T03:56:39;99209.25;;;8.59;100.00
62111;BME280;48102;47.526;19.072;2022-09-28T03:59:41;99202.22;;;8.59;100.00
62111;BME280;48102;47.526;19.072;2022-09-28T04:02:44;99200.25;;;8.63;100.00
62111;BME280;48102;47.526;19.072;2022-09-28T04:05:49;99203.72;;;8.63;100.00
62111;BME280;48102;47.526;19.072;2022-09-28T04:08:52;99209.75;;;8.65;100.00
62111;BME280;48102;47.526;19.072;2022-09-28T04:11:55;99213.22;;;8.66;100.00
62111;BME280;48102;47.526;19.072;2022-09-28T04:15:06;99208.69;;;8.68;100.00
62111;BME280;48102;47.526;19.072;2022-09-28T04:18:10;99204.31;;;8.68;100.00
62111;BME280;48102;47.526;19.072;2022-09-28T04:21:16;99205.22;;;8.67;100.00
62111;BME280;48102;47.526;19.072;2022-09-28T04:24:19;99212.25;;;8.67;100.00
62111;BME280;48102;47.526;19.072;2022-09-28T04:27:22;99205.16;;;8.69;100.00
62111;BME280;48102;47.526;19.072;2022-09-28T04:30:46;99202.44;;;8.70;100.00
62111;BME280;48102;47.526;19.072;2022-09-28T04:33:48;99208.34;;;8.74;100.00
62111;BME280;48102;47.526;19.072;2022-09-28T04:36:51;99209.00;;;8.77;100.00
62111;BME280;48102;47.526;19.072;2022-09-28T04:39:54;99206.28;;;8.79;100.00
62111;BME280;48102;47.526;19.072;2022-09-28T04:42:57;99203.75;;;8.77;100.00
62111;BME280;48102;47.526;19.072;2022-09-28T04:46:01;99200.56;;;8.72;100.00
62111;BME280;48102;47.526;19.072;2022-09-28T04:49:05;99198.19;;;8.68;100.00
62111;BME280;48102;47.526;19.072;2022-09-28T04:52:10;99203.44;;;8.68;100.00
62111;BME280;48102;47.526;19.072;2022-09-28T04:55:20;99201.88;;;8.65;100.00
62111;BME280;48102;47.526;19.072;2022-09-28T04:58:22;99198.66;;;8.60;100.00
62111;BME280;48102;47.526;19.072;2022-09-28T05:01:25;99206.91;;;8.54;100.00
62111;BME280;48102;47.526;19.072;2022-09-28T05:04:29;99203.53;;;8.52;100.00
62111;BME280;48102;47.526;19.072;2022-09-28T05:07:33;99209.50;;;8.40;100.00
62111;BME280;48102;47.526;19.072;2022-09-28T05:10:37;99208.97;;;8.33;100.00
62111;BME280;48102;47.526;19.072;2022-09-28T05:13:44;99218.84;;;8.29;100.00
62111;BME280;48102;47.526;19.072;2022-09-28T05:16:47;99231.19;;;8.27;100.00
62111;BME280;48102;47.526;19.072;2022-09-28T05:19:52;99222.56;;;8.25;100.00
62111;BME280;48102;47.526;19.072;2022-09-28T05:22:55;99225.47;;;8.21;100.00
62111;BME280;48102;47.526;19.072;2022-09-28T05:26:00;99227.25;;;8.20;100.00
62111;BME280;48102;47.526;19.072;2022-09-28T05:29:03;99220.38;;;8.18;100.00
62111;BME280;48102;47.526;19.072;2022-09-28T05:32:07;99224.69;;;8.19;100.00
62111;BME280;48102;47.526;19.072;2022-09-28T05:35:10;99213.94;;;8.23;100.00
62111;BME280;48102;47.526;19.072;2022-09-28T05:38:13;99215.87;;;8.50;100.00
62111;BME280;48102;47.526;19.072;2022-09-28T05:41:18;99218.06;;;8.72;100.00
62111;BME280;48102;47.526;19.072;2022-09-28T05:44:21;99228.06;;;8.95;100.00
62111;BME280;48102;47.526;19.072;2022-09-28T05:47:25;99221.19;;;9.21;100.00
62111;BME280;48102;47.526;19.072;2022-09-28T05:50:27;99232.91;;;9.44;100.00
62111;BME280;48102;47.526;19.072;2022-09-28T05:53:32;99227.03;;;9.68;100.00
62111;BME280;48102;47.526;19.072;2022-09-28T05:56:35;99229.44;;;9.85;100.00
62111;BME280;48102;47.526;19.072;2022-09-28T05:59:38;99229.19;;;10.02;100.00
62111;BME280;48102;47.526;19.072;2022-09-28T06:02:54;99225.34;;;10.21;100.00
62111;BME280;48102;47.526;19.072;2022-09-28T06:05:59;99210.13;;;10.39;97.46
62111;BME280;48102;47.526;19.072;2022-09-28T06:09:04;99207.06;;;10.58;97.39
62111;BME280;48102;47.526;19.072;2022-09-28T06:12:07;99198.97;;;10.73;92.37
62111;BME280;48102;47.526;19.072;2022-09-28T06:15:11;99203.28;;;10.87;91.97
62111;BME280;48102;47.526;19.072;2022-09-28T06:18:14;99204.75;;;11.04;88.93
62111;BME280;48102;47.526;19.072;2022-09-28T06:21:17;99203.06;;;11.16;89.45
62111;BME280;48102;47.526;19.072;2022-09-28T06:24:20;99207.16;;;11.33;89.63
62111;BME280;48102;47.526;19.072;2022-09-28T06:27:23;99209.53;;;11.48;88.04
62111;BME280;48102;47.526;19.072;2022-09-28T06:30:26;99204.00;;;11.64;88.33
62111;BME280;48102;47.526;19.072;2022-09-28T06:33:29;99209.97;;;11.79;88.58
62111;BME280;48102;47.526;19.072;2022-09-28T06:36:32;99217.53;;;11.96;88.81
62111;BME280;48102;47.526;19.072;2022-09-28T06:39:36;99212.91;;;12.11;86.85
62111;BME280;48102;47.526;19.072;2022-09-28T06:42:39;99216.19;;;12.26;85.93
62111;BME280;48102;47.526;19.072;2022-09-28T06:45:52;99211.78;;;12.38;78.89
62111;BME280;48102;47.526;19.072;2022-09-28T06:48:55;99214.63;;;12.59;80.56
62111;BME280;48102;47.526;19.072;2022-09-28T06:52:00;99214.41;;;12.73;76.34
62111;BME280;48102;47.526;19.072;2022-09-28T06:55:07;99221.03;;;12.90;78.42
62111;BME280;48102;47.526;19.072;2022-09-28T06:58:13;99230.66;;;13.02;74.27
62111;BME280;48102;47.526;19.072;2022-09-28T07:01:16;99240.63;;;13.21;75.32
62111;BME280;48102;47.526;19.072;2022-09-28T07:04:20;99227.22;;;13.35;72.87
62111;BME280;48102;47.526;19.072;2022-09-28T07:07:27;99231.53;;;13.47;71.45
62111;BME280;48102;47.526;19.072;2022-09-28T07:10:31;99224.69;;;13.56;71.08
62111;BME280;48102;47.526;19.072;2022-09-28T07:13:35;99233.78;;;13.63;67.46
62111;BME280;48102;47.526;19.072;2022-09-28T07:16:52;99227.88;;;13.71;67.32
62111;BME280;48102;47.526;19.072;2022-09-28T07:20:15;99228.94;;;13.91;65.43
62111;BME280;48102;47.526;19.072;2022-09-28T07:23:21;99221.81;;;13.91;67.60
62111;BME280;48102;47.526;19.072;2022-09-28T07:26:31;99219.50;;;13.98;68.69
62111;BME280;48102;47.526;19.072;2022-09-28T07:29:34;99225.38;;;14.13;66.38
62111;BME280;48102;47.526;19.072;2022-09-28T07:32:39;99223.75;;;14.21;67.24
62111;BME280;48102;47.526;19.072;2022-09-28T07:35:52;99216.19;;;14.38;66.01
62111;BME280;48102;47.526;19.072;2022-09-28T07:38:55;99216.91;;;14.51;65.30
62111;BME280;48102;47.526;19.072;2022-09-28T07:42:01;99220.84;;;14.57;64.67
62111;BME280;48102;47.526;19.072;2022-09-28T07:45:05;99224.84;;;14.72;64.44
62111;BME280;48102;47.526;19.072;2022-09-28T07:48:08;99221.16;;;14.84;63.75
62111;BME280;48102;47.526;19.072;2022-09-28T07:51:11;99215.13;;;15.03;65.19
62111;BME280;48102;47.526;19.072;2022-09-28T07:54:14;99212.88;;;15.29;63.29
62111;BME280;48102;47.526;19.072;2022-09-28T07:57:18;99222.47;;;15.61;61.60
62111;BME280;48102;47.526;19.072;2022-09-28T08:00:24;99222.59;;;15.59;61.73
62111;BME280;48102;47.526;19.072;2022-09-28T08:03:33;99219.66;;;15.62;62.76
62111;BME280;48102;47.526;19.072;2022-09-28T08:06:36;99219.94;;;15.59;64.06
62111;BME280;48102;47.526;19.072;2022-09-28T08:09:43;99222.19;;;15.64;63.94
62111;BME280;48102;47.526;19.072;2022-09-28T08:12:56;99229.13;;;15.76;63.68
62111;BME280;48102;47.526;19.072;2022-09-28T08:16:05;99229.69;;;15.99;64.98
62111;BME280;48102;47.526;19.072;2022-09-28T08:19:10;99224.94;;;16.12;64.35
62111;BME280;48102;47.526;19.072;2022-09-28T08:22:14;99228.44;;;16.42;65.27
62111;BME280;48102;47.526;19.072;2022-09-28T08:25:17;99215.69;;;16.55;63.69
62111;BME280;48102;47.526;19.072;2022-09-28T08:28:21;99209.00;;;16.41;64.78
62111;BME280;48102;47.526;19.072;2022-09-28T08:31:25;99199.63;;;16.18;64.17
62111;BME280;48102;47.526;19.072;2022-09-28T08:34:28;99191.34;;;16.01;65.69
62111;BME280;48102;47.526;19.072;2022-09-28T08:37:31;99189.16;;;16.07;65.95
62111;BME280;48102;47.526;19.072;2022-09-28T08:40:43;99183.28;;;15.93;63.57
62111;BME280;48102;47.526;19.072;2022-09-28T08:44:16;99184.22;;;15.92;66.58
62111;BME280;48102;47.526;19.072;2022-09-28T08:47:32;99191.81;;;16.07;65.49
62111;BME280;48102;47.526;19.072;2022-09-28T08:51:00;99205.94;;;16.07;65.92
62111;BME280;48102;47.526;19.072;2022-09-28T09:00:57;99213.34;;;16.03;69.28
62111;BME280;48102;47.526;19.072;2022-09-28T09:04:02;99212.06;;;16.17;65.41
62111;BME280;48102;47.526;19.072;2022-09-28T09:11:33;99204.66;;;15.82;67.17
62111;BME280;48102;47.526;19.072;2022-09-28T09:20:18;99194.59;;;16.05;65.34
62111;BME280;48102;47.526;19.072;2022-09-28T09:23:35;99201.88;;;16.03;63.59
62111;BME280;48102;47.526;19.072;2022-09-28T09:26:40;99204.94;;;16.18;63.71
62111;BME280;48102;47.526;19.072;2022-09-28T09:40:27;99198.06;;;16.54;65.24
62111;BME280;48102;47.526;19.072;2022-09-28T09:43:47;99190.06;;;16.64;61.99
62111;BME280;48102;47.526;19.072;2022-09-28T09:47:05;99187.94;;;16.87;62.23
62111;BME280;48102;47.526;19.072;2022-09-28T09:50:26;99185.81;;;16.90;64.03
62111;BME280;48102;47.526;19.072;2022-09-28T09:53:39;99188.78;;;17.52;60.27
62111;BME280;48102;47.526;19.072;2022-09-28T09:56:57;99195.19;;;18.22;57.94
62111;BME280;48102;47.526;19.072;2022-09-28T10:00:03;99191.75;;;18.30;56.43
62111;BME280;48102;47.526;19.072;2022-09-28T10:03:27;99181.66;;;19.12;56.69
62111;BME280;48102;47.526;19.072;2022-09-28T10:06:35;99186.06;;;19.63;53.56
62111;BME280;48102;47.526;19.072;2022-09-28T10:09:42;99198.78;;;19.69;51.07
62111;BME280;48102;47.526;19.072;2022-09-28T10:12:49;99191.09;;;19.32;52.31
62111;BME280;48102;47.526;19.072;2022-09-28T10:15:54;99196.03;;;19.53;51.73
62111;BME280;48102;47.526;19.072;2022-09-28T10:18:59;99190.97;;;19.92;51.10
62111;BME280;48102;47.526;19.072;2022-09-28T10:22:13;99199.13;;;19.74;51.64
62111;BME280;48102;47.526;19.072;2022-09-28T10:25:18;99201.34;;;19.45;52.48
62111;BME280;48102;47.526;19.072;2022-09-28T10:28:38;99188.59;;;19.30;52.75
62111;BME280;48102;47.526;19.072;2022-09-28T10:32:00;99177.31;;;19.53;53.30
62111;BME280;48102;47.526;19.072;2022-09-28T10:35:23;99200.16;;;19.05;53.39
62111;BME280;48102;47.526;19.072;2022-09-28T10:38:29;99184.91;;;18.97;53.24
62111;BME280;48102;47.526;19.072;2022-09-28T10:41:32;99196.19;;;19.09;54.18
62111;BME280;48102;47.526;19.072;2022-09-28T10:48:27;99193.94;;;18.52;55.24
62111;BME280;48102;47.526;19.072;2022-09-28T10:51:45;99200.37;;;18.68;55.97
62111;BME280;48102;47.526;19.072;2022-09-28T10:54:52;99202.91;;;18.69;54.36
62111;BME280;48102;47.526;19.072;2022-09-28T10:57:55;99189.12;;;19.00;53.42
62111;BME280;48102;47.526;19.072;2022-09-28T11:01:03;99193.84;;;19.14;53.71
62111;BME280;48102;47.526;19.072;2022-09-28T11:04:18;99180.97;;;19.44;53.80
62111;BME280;48102;47.526;19.072;2022-09-28T11:07:29;99173.69;;;19.20;53.28
62111;BME280;48102;47.526;19.072;2022-09-28T11:10:34;99178.34;;;19.18;52.73
62111;BME280;48102;47.526;19.072;2022-09-28T11:13:46;99169.50;;;19.17;55.32
62111;BME280;48102;47.526;19.072;2022-09-28T11:20:32;99169.78;;;18.54;56.02
62111;BME280;48102;47.526;19.072;2022-09-28T11:23:37;99155.16;;;18.84;54.81
62111;BME280;48102;47.526;19.072;2022-09-28T11:26:46;99165.03;;;19.26;53.75
62111;BME280;48102;47.526;19.072;2022-09-28T11:29:59;99160.53;;;19.61;54.28
62111;BME280;48102;47.526;19.072;2022-09-28T11:33:08;99152.88;;;20.07;51.26
62111;BME280;48102;47.526;19.072;2022-09-28T11:46:43;99150.25;;;20.56;50.26
62111;BME280;48102;47.526;19.072;2022-09-28T11:53:39;99167.25;;;20.79;49.82
62111;BME280;48102;47.526;19.072;2022-09-28T11:56:48;99140.88;;;20.51;50.24
62111;BME280;48102;47.526;19.072;2022-09-28T11:59:56;99138.34;;;20.50;49.45
62111;BME280;48102;47.526;19.072;2022-09-28T12:06:17;99120.44;;;20.59;47.94
62111;BME280;48102;47.526;19.072;2022-09-28T12:09:31;99124.75;;;20.68;48.24
62111;BME280;48102;47.526;19.072;2022-09-28T12:12:52;99123.09;;;20.75;49.73
62111;BME280;48102;47.526;19.072;2022-09-28T12:16:07;99112.59;;;20.41;49.34
62111;BME280;48102;47.526;19.072;2022-09-28T12:19:45;99117.41;;;20.45;49.36
62111;BME280;48102;47.526;19.072;2022-09-28T12:26:03;99108.31;;;20.87;48.25
62111;BME280;48102;47.526;19.072;2022-09-28T12:29:13;99105.44;;;20.97;48.18
62111;BME280;48102;47.526;19.072;2022-09-28T12:43:27;99086.84;;;21.43;46.72
62111;BME280;48102;47.526;19.072;2022-09-28T12:50:02;99081.41;;;21.97;44.29
62111;BME280;48102;47.526;19.072;2022-09-28T13:00:48;99078.91;;;25.74;37.92
62111;BME280;48102;47.526;19.072;2022-09-28T13:21:55;99067.19;;;35.36;21.59
62111;BME280;48102;47.526;19.072;2022-09-28T13:25:04;99057.97;;;35.63;21.69
62111;BME280;48102;47.526;19.072;2022-09-28T13:28:13;99058.47;;;36.72;20.62
62111;BME280;48102;47.526;19.072;2022-09-28T13:31:20;99055.41;;;32.95;23.76
62111;BME280;48102;47.526;19.072;2022-09-28T13:34:26;99056.81;;;30.00;27.58
62111;BME280;48102;47.526;19.072;2022-09-28T13:37:30;99059.59;;;30.47;26.53
62111;BME280;48102;47.526;19.072;2022-09-28T13:51:15;99048.13;;;30.81;26.76
62111;BME280;48102;47.526;19.072;2022-09-28T13:58:02;99049.22;;;30.44;26.12
62111;BME280;48102;47.526;19.072;2022-09-28T14:01:13;99031.06;;;28.21;29.24
62111;BME280;48102;47.526;19.072;2022-09-28T14:04:21;99031.06;;;29.01;28.62
62111;BME280;48102;47.526;19.072;2022-09-28T14:07:54;99040.41;;;29.23;27.85
62111;BME280;48102;47.526;19.072;2022-09-28T14:14:47;99035.91;;;33.58;23.46
62111;BME280;48102;47.526;19.072;2022-09-28T14:28:32;99030.56;;;35.93;20.28
62111;BME280;48102;47.526;19.072;2022-09-28T14:31:40;99027.78;;;37.69;18.25
62111;BME280;48102;47.526;19.072;2022-09-28T14:34:47;99018.44;;;32.88;22.60
62111;BME280;48102;47.526;19.072;2022-09-28T14:38:04;99010.56;;;30.94;25.23
62111;BME280;48102;47.526;19.072;2022-09-28T14:41:35;99008.88;;;30.18;25.38
62111;BME280;48102;47.526;19.072;2022-09-28T14:48:17;99003.69;;;28.54;28.36
62111;BME280;48102;47.526;19.072;2022-09-28T14:54:50;98997.28;;;25.26;33.32
62111;BME280;48102;47.526;19.072;2022-09-28T14:57:56;98996.19;;;23.75;35.83
62111;BME280;48102;47.526;19.072;2022-09-28T15:01:06;98991.34;;;23.06;38.52
62111;BME280;48102;47.526;19.072;2022-09-28T15:04:14;98997.78;;;21.93;40.14
62111;BME280;48102;47.526;19.072;2022-09-28T15:07:42;98985.84;;;21.12;41.47
62111;BME280;48102;47.526;19.072;2022-09-28T15:10:48;98985.28;;;20.46;44.43
62111;BME280;48102;47.526;19.072;2022-09-28T15:14:04;98983.59;;;19.82;45.58
62111;BME280;48102;47.526;19.072;2022-09-28T15:17:09;98988.28;;;19.88;46.07
62111;BME280;48102;47.526;19.072;2022-09-28T15:20:21;98985.78;;;19.86;46.11
62111;BME280;48102;47.526;19.072;2022-09-28T15:26:32;98970.75;;;19.52;46.92
